createdAt,value
2018-01-11T00:02:24.385Z,7.57
2018-01-11T00:04:53.835Z,8.30
2018-01-11T00:07:22.394Z,8.30
2018-01-11T00:09:54.346Z,8.77
2018-01-11T00:12:22.606Z,9.33
2018-01-11T00:14:53.771Z,9.10
2018-01-11T00:17:21.778Z,9.43
2018-01-11T00:19:53.115Z,9.50
2018-01-11T00:22:21.506Z,10.10
2018-01-11T00:24:54.830Z,9.77
2018-01-11T00:27:22.852Z,9.67
2018-01-11T00:29:54.005Z,9.63
2018-01-11T00:32:22.028Z,9.80
2018-01-11T00:34:53.173Z,10.33
2018-01-11T00:37:21.205Z,10.10
2018-01-11T00:39:52.483Z,10.50
2018-01-11T00:42:20.510Z,9.50
2018-01-11T00:44:52.079Z,9.43
2018-01-11T00:47:20.109Z,9.93
2018-01-11T00:49:51.715Z,10.53
2018-01-11T00:52:19.753Z,10.30
2018-01-11T00:54:52.464Z,10.20
2018-01-11T00:57:20.484Z,10.87
2018-01-11T00:59:51.872Z,10.00
2018-01-11T01:02:19.920Z,10.23
2018-01-11T01:04:52.851Z,11.90
2018-01-11T01:07:21.116Z,10.67
2018-01-11T01:09:52.336Z,11.00
2018-01-11T01:12:20.398Z,10.77
2018-01-11T01:14:51.644Z,11.03
2018-01-11T01:17:19.884Z,10.40
2018-01-11T01:19:52.858Z,10.57
2018-01-11T01:22:20.832Z,9.80
2018-01-11T01:24:55.285Z,10.70
2018-01-11T01:27:23.420Z,11.23
2018-01-11T01:29:54.371Z,10.43
2018-01-11T01:32:22.408Z,10.00
2018-01-11T01:34:53.756Z,10.07
2018-01-11T01:37:21.793Z,10.17
2018-01-11T01:39:52.931Z,11.93
2018-01-11T01:42:21.148Z,11.07
2018-01-11T01:44:52.930Z,9.77
2018-01-11T01:47:20.946Z,10.97
2018-01-11T01:49:55.334Z,10.20
2018-01-11T01:52:23.348Z,10.80
2018-01-11T01:54:52.969Z,10.67
2018-01-11T01:57:20.984Z,10.97
2018-01-11T01:59:52.869Z,10.93
2018-01-11T02:02:20.897Z,10.53
2018-01-11T02:04:55.250Z,11.40
2018-01-11T02:07:23.273Z,11.27
2018-01-11T02:09:53.463Z,11.37
2018-01-11T02:12:21.469Z,11.17
2018-01-11T02:14:52.648Z,10.97
2018-01-11T02:17:20.898Z,11.37
2018-01-11T02:19:55.254Z,11.80
2018-01-11T02:22:23.277Z,12.03
2018-01-11T02:24:52.942Z,10.67
2018-01-11T02:27:20.985Z,12.63
2018-01-11T02:29:53.153Z,11.67
2018-01-11T02:32:21.339Z,12.20
2018-01-11T02:34:52.370Z,12.93
2018-01-11T02:37:20.405Z,12.50
2018-01-11T02:42:21.563Z,12.13
2018-01-11T02:44:52.865Z,12.50
2018-01-11T02:47:21.282Z,12.07
2018-01-11T02:49:56.016Z,12.57
2018-01-11T02:52:25.803Z,12.67
2018-01-11T02:54:54.542Z,12.93
2018-01-11T02:57:22.596Z,13.13
2018-01-11T02:59:54.150Z,12.17
2018-01-11T03:02:22.554Z,11.63
2018-01-11T03:04:53.000Z,12.53
2018-01-11T03:07:21.040Z,12.83
2018-01-11T03:09:53.428Z,12.23
2018-01-11T03:12:21.465Z,12.20
2018-01-11T03:14:52.579Z,12.47
2018-01-11T03:17:20.628Z,13.00
2018-01-11T03:19:55.140Z,12.27
2018-01-11T03:22:23.273Z,13.70
2018-01-11T03:24:53.105Z,12.37
2018-01-11T03:27:21.132Z,12.20
2018-01-11T03:29:55.837Z,13.43
2018-01-11T03:32:23.871Z,12.80
2018-01-11T03:34:53.744Z,12.70
2018-01-11T03:37:22.321Z,12.53
2018-01-11T03:39:54.584Z,12.10
2018-01-11T03:42:22.621Z,11.90
2018-01-11T03:44:54.482Z,12.50
2018-01-11T03:47:22.683Z,13.10
2018-01-11T03:49:53.830Z,11.57
2018-01-11T03:52:21.852Z,11.33
2018-01-11T03:54:53.137Z,10.80
2018-01-11T03:57:21.171Z,10.80
2018-01-11T03:59:55.196Z,10.93
2018-01-11T04:02:23.385Z,11.00
2018-01-11T04:04:54.298Z,11.10
2018-01-11T04:07:22.307Z,11.27
2018-01-11T04:09:53.656Z,11.27
2018-01-11T04:12:21.690Z,11.27
2018-01-11T04:14:52.834Z,11.43
2018-01-11T04:17:20.839Z,11.97
2018-01-11T04:19:55.290Z,11.57
2018-01-11T04:22:24.428Z,11.90
2018-01-11T04:24:53.132Z,11.80
2018-01-11T04:27:21.456Z,11.70
2018-01-11T04:29:53.645Z,12.23
2018-01-11T04:32:21.641Z,12.70
2018-01-11T04:34:52.805Z,13.47
2018-01-11T04:37:20.839Z,12.77
2018-01-11T04:39:55.274Z,13.67
2018-01-11T04:42:23.608Z,12.03
2018-01-11T04:44:53.069Z,12.73
2018-01-11T04:47:21.280Z,13.17
2018-01-11T04:49:56.277Z,13.30
2018-01-11T04:52:24.569Z,13.33
2018-01-11T04:54:53.813Z,14.90
2018-01-11T04:57:22.025Z,13.43
2018-01-11T04:59:53.274Z,12.90
2018-01-11T05:02:21.280Z,13.17
2018-01-11T05:04:55.949Z,11.87
2018-01-11T05:07:24.478Z,12.43
2018-01-11T05:09:53.772Z,12.27
2018-01-11T05:12:21.801Z,11.50
2018-01-11T05:14:52.992Z,12.47
2018-01-11T05:17:21.006Z,12.27
2018-01-11T05:19:56.092Z,13.07
2018-01-11T05:22:24.117Z,12.73
2018-01-11T05:24:53.125Z,12.23
2018-01-11T05:27:21.168Z,12.40
2018-01-11T05:29:52.429Z,13.00
2018-01-11T05:32:20.453Z,12.37
2018-01-11T05:34:52.345Z,12.70
2018-01-11T05:37:20.462Z,13.07
2018-01-11T05:39:55.332Z,12.73
2018-01-11T05:42:23.364Z,13.53
2018-01-11T05:44:56.104Z,12.60
2018-01-11T05:47:24.135Z,12.90
2018-01-11T05:49:53.836Z,12.63
2018-01-11T05:52:21.886Z,12.87
2018-01-11T05:54:53.235Z,14.10
2018-01-11T05:57:21.280Z,13.67
2018-01-11T05:59:56.041Z,14.07
2018-01-11T06:02:24.081Z,13.70
2018-01-11T06:04:53.204Z,13.73
2018-01-11T06:07:21.417Z,14.00
2018-01-11T06:09:52.611Z,14.43
2018-01-11T06:12:20.616Z,14.50
2018-01-11T06:14:51.731Z,14.60
2018-01-11T06:17:19.742Z,14.40
2018-01-11T06:19:49.218Z,15.27
2018-01-11T06:22:18.780Z,14.13
2018-01-11T06:24:47.017Z,14.33
2018-01-11T06:27:20.594Z,14.63
2018-01-11T06:29:55.164Z,14.63
2018-01-11T06:32:23.781Z,14.00
2018-01-11T06:34:54.704Z,14.00
2018-01-11T06:37:22.735Z,14.57
2018-01-11T06:39:54.699Z,14.20
2018-01-11T06:42:22.693Z,13.67
2018-01-11T06:44:53.823Z,14.87
2018-01-11T06:47:21.873Z,15.00
2018-01-11T06:49:52.999Z,14.17
2018-01-11T06:52:21.224Z,14.70
2018-01-11T06:54:56.405Z,15.13
2018-01-11T06:57:24.720Z,13.37
2018-01-11T06:59:53.424Z,14.60
2018-01-11T07:02:21.597Z,14.33
2018-01-11T07:04:56.239Z,14.37
2018-01-11T07:07:24.263Z,14.43
2018-01-11T07:09:53.028Z,16.23
2018-01-11T07:12:21.050Z,14.97
2018-01-11T07:14:52.419Z,15.13
2018-01-11T07:17:20.675Z,14.33
2018-01-11T07:19:51.717Z,14.90
2018-01-11T07:22:19.740Z,15.03
2018-01-11T07:24:49.219Z,14.10
2018-01-11T07:27:19.149Z,14.53
2018-01-11T07:29:47.222Z,14.63
2018-01-11T07:32:21.024Z,14.70
2018-01-11T07:34:55.459Z,13.87
2018-01-11T07:37:23.995Z,13.90
2018-01-11T07:39:54.265Z,13.90
2018-01-11T07:42:22.268Z,14.43
2018-01-11T07:44:53.832Z,12.97
2018-01-11T07:47:21.879Z,13.53
2018-01-11T07:49:53.016Z,15.20
2018-01-11T07:52:21.053Z,14.30
2018-01-11T07:54:52.259Z,17.23
2018-01-11T07:57:20.332Z,20.40
2018-01-11T07:59:51.701Z,15.80
2018-01-11T08:02:19.850Z,14.83
2018-01-11T08:04:52.595Z,15.07
2018-01-11T08:07:20.776Z,14.73
2018-01-11T08:09:55.270Z,15.33
2018-01-11T08:12:24.121Z,15.90
2018-01-11T08:14:53.172Z,15.03
2018-01-11T08:17:21.660Z,15.37
2018-01-11T08:19:53.280Z,15.10
2018-01-11T08:22:21.421Z,16.10
2018-01-11T08:24:56.220Z,14.57
2018-01-11T08:27:24.264Z,15.27
2018-01-11T08:29:53.413Z,14.60
2018-01-11T08:32:21.729Z,15.30
2018-01-11T08:34:52.857Z,15.10
2018-01-11T08:37:20.894Z,15.63
2018-01-11T08:39:55.426Z,16.23
2018-01-11T08:42:23.632Z,16.73
2018-01-11T08:44:53.474Z,15.20
2018-01-11T08:47:21.572Z,16.33
2018-01-11T08:49:52.720Z,15.70
2018-01-11T08:52:20.824Z,16.13
2018-01-11T08:54:55.323Z,16.20
2018-01-11T08:57:23.348Z,15.50
2018-01-11T08:59:53.009Z,15.83
2018-01-11T09:02:21.057Z,15.10
2018-01-11T09:04:55.994Z,16.23
2018-01-11T09:07:24.813Z,16.30
2018-01-11T09:09:54.109Z,16.60
2018-01-11T09:12:22.093Z,16.33
2018-01-11T09:14:53.128Z,16.20
2018-01-11T09:17:21.354Z,16.97
2018-01-11T09:19:52.774Z,16.03
2018-01-11T09:22:20.785Z,16.27
2018-01-11T09:24:55.395Z,17.50
2018-01-11T09:27:23.441Z,17.07
2018-01-11T09:29:53.740Z,16.83
2018-01-11T09:32:22.037Z,17.17
2018-01-11T09:34:55.909Z,17.77
2018-01-11T09:37:23.913Z,18.53
2018-01-11T09:39:53.684Z,18.53
2018-01-11T09:42:21.703Z,16.67
2018-01-11T09:44:54.344Z,18.30
2018-01-11T09:47:22.383Z,17.43
2018-01-11T09:49:54.641Z,17.50
2018-01-11T09:52:22.792Z,17.40
2018-01-11T09:54:54.451Z,17.13
2018-01-11T09:57:22.704Z,16.80
2018-01-11T09:59:53.335Z,17.23
2018-01-11T10:02:21.826Z,16.23
2018-01-11T10:04:52.898Z,15.60
2018-01-11T10:07:21.024Z,16.40
2018-01-11T10:09:52.849Z,16.60
2018-01-11T10:12:20.880Z,17.53
2018-01-11T10:14:55.409Z,16.37
2018-01-11T10:17:23.545Z,15.93
2018-01-11T10:19:54.884Z,16.67
2018-01-11T10:22:22.920Z,16.10
2018-01-11T10:24:54.276Z,16.93
2018-01-11T10:27:22.292Z,16.60
2018-01-11T10:29:54.037Z,16.10
2018-01-11T10:32:22.061Z,17.00
2018-01-11T10:34:53.216Z,16.90
2018-01-11T10:37:21.229Z,16.60
2018-01-11T10:39:52.520Z,16.03
2018-01-11T10:42:20.654Z,17.17
2018-01-11T10:44:55.028Z,16.87
2018-01-11T10:47:23.036Z,17.17
2018-01-11T10:49:53.153Z,17.30
2018-01-11T10:52:21.188Z,17.60
2018-01-11T10:54:52.868Z,17.27
2018-01-11T10:57:20.905Z,18.60
2018-01-11T10:59:55.336Z,17.90
2018-01-11T11:02:29.295Z,18.17
2018-01-11T11:04:57.303Z,17.73
2018-01-11T11:07:25.322Z,17.23
2018-01-11T11:09:53.498Z,16.77
2018-01-11T11:12:21.522Z,16.47
2018-01-11T11:14:52.846Z,15.07
2018-01-11T11:17:20.885Z,15.57
2018-01-11T11:19:55.253Z,14.93
2018-01-11T11:22:23.377Z,14.90
2018-01-11T11:24:53.370Z,14.87
2018-01-11T11:27:21.408Z,14.13
2018-01-11T11:29:54.909Z,13.90
2018-01-11T11:32:22.933Z,14.53
2018-01-11T11:34:54.588Z,15.27
2018-01-11T11:37:22.764Z,14.00
2018-01-11T11:39:55.124Z,13.83
2018-01-11T11:42:23.787Z,14.30
2018-01-11T11:44:54.865Z,14.93
2018-01-11T11:47:22.882Z,15.03
2018-01-11T11:49:54.170Z,15.53
2018-01-11T11:52:22.196Z,14.33
2018-01-11T11:54:53.180Z,14.00
2018-01-11T11:57:21.195Z,13.67
2018-01-11T11:59:52.497Z,14.37
2018-01-11T12:02:20.518Z,14.00
2018-01-11T12:04:51.916Z,13.27
2018-01-11T12:07:19.940Z,13.23
2018-01-11T12:09:52.752Z,13.47
2018-01-11T12:12:21.053Z,13.63
2018-01-11T12:14:54.424Z,12.20
2018-01-11T12:17:22.720Z,13.40
2018-01-11T12:19:53.660Z,61.37
2018-01-11T12:22:22.177Z,19.43
2018-01-11T12:24:53.929Z,13.27
2018-01-11T12:27:21.961Z,15.43
2018-01-11T12:29:55.782Z,13.20
2018-01-11T12:32:23.800Z,28.63
2018-01-11T12:34:53.336Z,21.63
2018-01-11T12:37:22.144Z,40.37
2018-01-11T12:39:53.770Z,31.00
2018-01-11T12:42:21.857Z,12.13
2018-01-11T12:44:52.244Z,16.07
2018-01-11T12:47:20.306Z,11.80
2018-01-11T12:49:51.498Z,11.40
2018-01-11T12:52:19.767Z,10.50
2018-01-11T12:54:51.005Z,10.57
2018-01-11T12:57:19.024Z,11.27
2018-01-11T12:59:51.858Z,11.37
2018-01-11T13:02:19.977Z,11.20
2018-01-11T13:04:54.552Z,10.80
2018-01-11T13:07:22.544Z,12.20
2018-01-11T13:09:53.682Z,11.23
2018-01-11T13:12:21.851Z,24.00
2018-01-11T13:14:52.996Z,11.37
2018-01-11T13:17:21.304Z,14.03
2018-01-11T13:19:52.175Z,10.30
2018-01-11T13:22:20.204Z,10.93
2018-01-11T13:24:55.064Z,10.87
2018-01-11T13:27:23.237Z,11.33
2018-01-11T13:29:53.807Z,14.83
2018-01-11T13:32:22.125Z,10.57
2018-01-11T13:34:53.243Z,29.70
2018-01-11T13:37:21.528Z,11.90
2018-01-11T13:39:52.324Z,12.50
2018-01-11T13:42:20.613Z,12.57
2018-01-11T13:44:53.566Z,11.47
2018-01-11T13:47:21.668Z,11.23
2018-01-11T13:49:53.569Z,11.17
2018-01-11T13:52:21.601Z,11.73
2018-01-11T13:54:53.652Z,12.50
2018-01-11T13:57:21.929Z,11.73
2018-01-11T13:59:54.505Z,19.50
2018-01-11T14:02:22.562Z,10.80
2018-01-11T14:04:52.098Z,11.73
2018-01-11T14:07:20.149Z,18.53
2018-01-11T14:09:51.577Z,10.10
2018-01-11T14:12:19.885Z,11.70
2018-01-11T14:14:54.409Z,11.57
2018-01-11T14:17:22.466Z,12.33
2018-01-11T14:19:55.197Z,12.23
2018-01-11T14:22:23.356Z,14.03
2018-01-11T14:24:52.203Z,21.03
2018-01-11T14:27:21.583Z,16.70
2018-01-11T14:29:53.489Z,11.90
2018-01-11T14:32:21.527Z,10.60
2018-01-11T14:34:52.971Z,15.07
2018-01-11T14:37:21.174Z,17.73
2018-01-11T14:39:52.408Z,13.17
2018-01-11T14:42:20.595Z,12.63
2018-01-11T14:44:51.817Z,13.00
2018-01-11T14:47:19.840Z,17.63
2018-01-11T14:49:54.386Z,16.23
2018-01-11T14:52:22.409Z,11.00
2018-01-11T14:54:53.374Z,12.13
2018-01-11T14:57:21.417Z,13.70
2018-01-11T14:59:53.037Z,10.93
2018-01-11T15:02:21.068Z,18.93
2018-01-11T15:04:52.295Z,13.83
2018-01-11T15:07:20.349Z,16.63
2018-01-11T15:09:54.956Z,15.77
2018-01-11T15:12:23.001Z,14.70
2018-01-11T15:14:54.669Z,12.90
2018-01-11T15:17:22.704Z,13.03
2018-01-11T15:19:52.404Z,10.87
2018-01-11T15:22:20.457Z,17.73
2018-01-11T15:24:51.584Z,21.57
2018-01-11T15:27:19.637Z,17.83
2018-01-11T15:29:54.527Z,11.67
2018-01-11T15:32:22.543Z,10.77
2018-01-11T15:34:52.405Z,11.40
2018-01-11T15:37:21.154Z,11.80
2018-01-11T15:39:52.766Z,16.17
2018-01-11T15:42:21.297Z,11.40
2018-01-11T15:44:52.235Z,11.57
2018-01-11T15:47:20.401Z,11.47
2018-01-11T15:49:55.090Z,12.43
2018-01-11T15:52:23.383Z,11.10
2018-01-11T15:54:52.112Z,12.07
2018-01-11T15:57:20.492Z,11.93
2018-01-11T15:59:51.665Z,13.97
2018-01-11T16:02:19.682Z,14.30
2018-01-11T16:04:54.144Z,15.20
2018-01-11T16:07:22.258Z,13.97
2018-01-11T16:09:53.228Z,13.00
2018-01-11T16:12:21.905Z,14.87
2018-01-11T16:14:52.960Z,13.57
2018-01-11T16:17:21.012Z,12.63
2018-01-11T16:19:52.111Z,12.87
2018-01-11T16:22:20.144Z,14.10
2018-01-11T16:24:52.201Z,13.73
2018-01-11T16:27:20.244Z,14.27
2018-01-11T16:29:51.629Z,13.90
2018-01-11T16:32:19.676Z,14.70
2018-01-11T16:34:51.489Z,14.23
2018-01-11T16:37:19.585Z,15.53
2018-01-11T16:39:51.453Z,12.90
2018-01-11T16:42:19.468Z,12.77
2018-01-11T16:44:51.208Z,13.87
2018-01-11T16:47:19.217Z,15.03
2018-01-11T16:52:20.673Z,14.73
2018-01-11T16:54:55.580Z,15.83
2018-01-11T16:57:23.610Z,17.90
2018-01-11T16:59:52.985Z,14.97
2018-01-11T17:02:21.035Z,17.93
2018-01-11T17:04:52.076Z,18.17
2018-01-11T17:07:20.464Z,18.03
2018-01-11T17:09:51.502Z,17.77
2018-01-11T17:12:19.508Z,18.83
2018-01-11T17:17:20.732Z,17.63
2018-01-11T17:19:53.800Z,18.70
2018-01-11T17:22:21.805Z,17.33
2018-01-11T17:24:53.733Z,19.07
2018-01-11T17:27:21.794Z,17.20
2018-01-11T17:29:53.233Z,17.87
2018-01-11T17:32:21.729Z,15.87
2018-01-11T17:34:52.773Z,16.47
2018-01-11T17:37:20.796Z,16.93
2018-01-11T17:39:55.848Z,18.40
2018-01-11T17:42:23.858Z,16.87
2018-01-11T17:44:52.880Z,16.70
2018-01-11T17:47:21.070Z,15.47
2018-01-11T17:49:52.430Z,15.53
2018-01-11T17:52:20.452Z,16.53
2018-01-11T17:54:55.201Z,16.50
2018-01-11T17:57:23.233Z,16.07
2018-01-11T17:59:52.284Z,15.87
2018-01-11T18:02:20.603Z,15.47
2018-01-11T18:04:54.163Z,15.57
2018-01-11T18:07:22.182Z,15.87
2018-01-11T18:09:53.945Z,16.37
2018-01-11T18:12:21.991Z,15.10
2018-01-11T18:14:53.360Z,16.20
2018-01-11T18:17:21.389Z,16.83
2018-01-11T18:19:52.159Z,16.87
2018-01-11T18:22:20.660Z,16.63
2018-01-11T18:24:51.910Z,16.53
2018-01-11T18:27:19.952Z,16.50
2018-01-11T18:29:54.543Z,15.87
2018-01-11T18:32:22.568Z,16.57
2018-01-11T18:34:52.452Z,16.03
2018-01-11T18:37:20.466Z,16.83
2018-01-11T18:39:51.529Z,16.10
2018-01-11T18:42:19.552Z,17.10
2018-01-11T18:47:20.708Z,16.80
2018-01-11T18:49:51.952Z,18.67
2018-01-11T18:52:19.997Z,18.10
2018-01-11T18:54:54.421Z,18.43
2018-01-11T18:57:22.568Z,17.07
2018-01-11T18:59:52.209Z,17.20
2018-01-11T19:02:20.381Z,18.17
2018-01-11T19:04:55.106Z,17.27
2018-01-11T19:07:23.101Z,16.37
2018-01-11T19:09:52.682Z,17.03
2018-01-11T19:12:20.710Z,16.07
2018-01-11T19:14:53.600Z,17.23
2018-01-11T19:17:22.018Z,17.33
2018-01-11T19:19:53.403Z,17.37
2018-01-11T19:22:21.425Z,17.77
2018-01-11T19:24:53.025Z,18.57
2018-01-11T19:27:21.053Z,19.37
2018-01-11T19:29:52.404Z,17.87
2018-01-11T19:32:20.417Z,17.57
2018-01-11T19:34:52.228Z,22.03
2018-01-11T19:37:20.279Z,21.20
2018-01-11T19:39:51.508Z,23.07
2018-01-11T19:42:19.521Z,19.63
2018-01-11T19:44:52.537Z,18.07
2018-01-11T19:47:20.554Z,17.17
2018-01-11T19:49:55.212Z,21.07
2018-01-11T19:52:23.239Z,19.17
2018-01-11T19:54:52.604Z,20.10
2018-01-11T19:57:20.633Z,17.60
2018-01-11T19:59:52.005Z,17.27
2018-01-11T20:02:19.972Z,17.27
2018-01-11T20:04:54.452Z,17.30
2018-01-11T20:07:22.497Z,17.60
2018-01-11T20:09:52.112Z,19.23
2018-01-11T20:12:20.740Z,17.20
2018-01-11T20:14:52.082Z,18.00
2018-01-11T20:17:20.118Z,17.67
2018-01-11T20:19:54.591Z,16.87
2018-01-11T20:22:22.583Z,16.67
2018-01-11T20:24:52.215Z,17.00
2018-01-11T20:27:20.237Z,17.37
2018-01-11T20:29:52.063Z,17.80
2018-01-11T20:32:20.076Z,16.67
2018-01-11T20:34:54.517Z,17.40
2018-01-11T20:37:22.541Z,17.87
2018-01-11T20:39:53.485Z,18.93
2018-01-11T20:42:21.516Z,19.43
2018-01-11T20:44:52.843Z,20.37
2018-01-11T20:47:20.838Z,17.53
2018-01-11T20:49:52.007Z,18.03
2018-01-11T20:52:20.010Z,16.37
2018-01-11T20:54:54.585Z,18.93
2018-01-11T20:57:22.592Z,17.47
2018-01-11T20:59:52.353Z,16.57
2018-01-11T21:02:20.404Z,18.43
2018-01-11T21:04:51.726Z,17.33
2018-01-11T21:07:19.752Z,17.47
2018-01-11T21:09:54.117Z,18.03
2018-01-11T21:12:22.458Z,17.93
2018-01-11T21:14:54.053Z,18.00
2018-01-11T21:17:22.061Z,17.80
2018-01-11T21:19:53.758Z,17.37
2018-01-11T21:22:21.773Z,17.40
2018-01-11T21:24:53.111Z,17.07
2018-01-11T21:27:21.144Z,17.40
2018-01-11T21:29:52.456Z,17.70
2018-01-11T21:32:21.003Z,16.63
2018-01-11T21:34:54.744Z,17.33
2018-01-11T21:37:22.760Z,17.70
2018-01-11T21:39:52.357Z,18.90
2018-01-11T21:42:20.684Z,21.40
2018-01-11T21:44:52.444Z,19.33
2018-01-11T21:47:20.469Z,20.27
2018-01-11T21:49:54.574Z,18.73
2018-01-11T21:52:22.605Z,19.77
2018-01-11T21:54:52.300Z,19.90
2018-01-11T21:57:20.334Z,20.23
2018-01-11T21:59:55.235Z,20.87
2018-01-11T22:02:23.285Z,18.93
2018-01-11T22:04:52.331Z,20.90
2018-01-11T22:07:20.373Z,20.27
2018-01-11T22:09:55.176Z,20.23
2018-01-11T22:12:23.208Z,19.90
2018-01-11T22:14:52.597Z,20.07
2018-01-11T22:17:20.609Z,20.87
2018-01-11T22:19:51.836Z,19.50
2018-01-11T22:22:19.863Z,20.97
2018-01-11T22:24:51.620Z,21.67
2018-01-11T22:27:19.597Z,22.43
2018-01-11T22:29:50.857Z,21.03
2018-01-11T22:32:18.853Z,23.70
2018-01-11T22:34:48.407Z,22.57
2018-01-11T22:37:18.005Z,23.37
2018-01-11T22:39:46.024Z,23.47
2018-01-11T22:42:14.054Z,22.67
2018-01-11T22:44:42.157Z,22.40
2018-01-11T22:47:10.193Z,22.80
2018-01-11T22:49:38.206Z,23.83
2018-01-11T22:52:06.238Z,23.83
2018-01-11T22:54:34.288Z,23.43
2018-01-11T22:57:02.312Z,23.90
2018-01-11T22:59:30.348Z,22.83
2018-01-11T23:01:58.365Z,22.93
2018-01-11T23:04:26.506Z,23.23
2018-01-11T23:06:54.741Z,24.43
2018-01-11T23:09:22.793Z,25.17
2018-01-11T23:11:50.809Z,24.10
2018-01-11T23:14:18.825Z,24.93
2018-01-11T23:16:47.484Z,26.83
2018-01-11T23:19:15.508Z,26.23
2018-01-11T23:21:43.531Z,25.97
2018-01-11T23:24:11.563Z,26.77
2018-01-11T23:26:40.518Z,26.43
2018-01-11T23:29:09.164Z,26.97
2018-01-11T23:31:37.336Z,26.93
2018-01-11T23:34:05.356Z,26.80
2018-01-11T23:36:33.378Z,26.53
2018-01-11T23:39:01.402Z,26.67
2018-01-11T23:41:29.445Z,26.30
2018-01-11T23:43:57.461Z,26.50
2018-01-11T23:46:25.484Z,26.83
2018-01-11T23:48:53.635Z,26.53
2018-01-11T23:51:21.740Z,27.33
2018-01-11T23:53:49.756Z,27.40
2018-01-11T23:56:18.068Z,28.63
2018-01-11T23:58:46.102Z,28.27
